Time;durP1;ratioP1;P1;durP2;ratioP2;P2;SDS_P1;SDS_P2;PMS_P1;PMS_P2;Temp;Humidity;BMP_temperature;BMP_pressure;BME280_temperature;BME280_humidity;BME280_pressure;Samples;Min_cycle;Max_cycle;Signal;HPM_P1;HPM_P2
2021/10/28 00:13:48;;;;;;;16.33;9.32;;;27.70;92.20;;;;;;5183434;27;20053;-53
2021/10/28 00:16:26;;;;;;;12.85;8.15;;;27.70;92.20;;;;;;5183191;27;20095;-54
2021/10/28 00:19:03;;;;;;;9.05;6.50;;;27.70;92.20;;;;;;5183138;27;20022;-57
2021/10/28 00:21:32;;;;;;;12.27;5.75;;;27.70;92.10;;;;;;5183607;27;20238;-56
2021/10/28 00:24:02;;;;;;;8.77;4.75;;;27.70;92.20;;;;;;5183447;27;20188;-55
2021/10/28 00:26:30;;;;;;;6.75;4.93;;;27.60;92.20;;;;;;5183978;27;20018;-52
2021/10/28 00:29:01;;;;;;;8.85;4.18;;;27.70;92.20;;;;;;5183916;27;20088;-54
2021/10/28 00:31:30;;;;;;;15.43;10.10;;;27.60;92.20;;;;;;5182910;27;20021;-54
2021/10/28 00:33:59;;;;;;;8.57;5.18;;;27.60;92.20;;;;;;5149906;27;20061;-54
2021/10/28 00:36:34;;;;;;;8.23;4.68;;;27.60;92.20;;;;;;5162103;27;20011;-53
2021/10/28 00:39:03;;;;;;;8.50;4.25;;;27.60;92.20;;;;;;5143235;27;20094;-53
2021/10/28 00:41:29;;;;;;;11.93;4.07;;;27.60;92.30;;;;;;5161725;27;20015;-55
2021/10/28 00:43:58;;;;;;;7.82;3.42;;;27.60;92.30;;;;;;5064818;27;20054;-55
2021/10/28 00:46:31;;;;;;;6.47;3.55;;;27.60;92.20;;;;;;5043072;28;20025;-53
2021/10/28 00:49:00;;;;;;;10.10;4.35;;;27.60;92.20;;;;;;5112312;28;20032;-53
2021/10/28 00:51:29;;;;;;;6.80;3.55;;;27.60;92.20;;;;;;5043113;28;20017;-53
2021/10/28 00:53:58;;;;;;;10.20;3.70;;;27.60;92.20;;;;;;5043490;28;20017;-52
2021/10/28 00:56:34;;;;;;;9.77;3.70;;;27.60;92.20;;;;;;5112098;28;20020;-53
2021/10/28 00:59:02;;;;;;;7.95;3.80;;;27.60;92.20;;;;;;5112139;28;20074;-53
2021/10/28 01:01:29;;;;;;;7.90;3.55;;;27.60;92.30;;;;;;5043386;28;20041;-53
2021/10/28 01:03:57;;;;;;;9.73;3.88;;;27.60;92.30;;;;;;5043290;28;20084;-51
2021/10/28 01:06:24;;;;;;;5.70;3.20;;;27.60;92.30;;;;;;5042937;28;20022;-55
2021/10/28 01:08:51;;;;;;;5.80;3.03;;;27.60;92.40;;;;;;5042901;28;20025;-54
2021/10/28 01:11:19;;;;;;;6.55;2.25;;;27.60;92.40;;;;;;5043143;28;20024;-55
2021/10/28 01:13:46;;;;;;;8.00;2.78;;;27.60;92.40;;;;;;5111577;28;20082;-56
2021/10/28 01:16:13;;;;;;;10.07;2.60;;;27.60;92.30;;;;;;5042953;28;20050;-55
2021/10/28 01:18:39;;;;;;;12.27;2.70;;;27.60;92.40;;;;;;5042903;28;20013;-53
2021/10/28 01:21:09;;;;;;;8.40;2.03;;;27.60;92.40;;;;;;5042645;28;20205;-54
2021/10/28 01:23:38;;;;;;;7.45;2.28;;;27.60;92.40;;;;;;5042730;28;20213;-54
2021/10/28 01:26:09;;;;;;;7.03;2.40;;;27.60;92.40;;;;;;5042761;28;20041;-53
2021/10/28 01:28:39;;;;;;;10.00;2.45;;;27.60;92.40;;;;;;5111289;28;20394;-55
2021/10/28 01:31:09;;;;;;;7.45;2.35;;;27.60;92.40;;;;;;5042617;28;20022;-55
2021/10/28 01:33:37;;;;;;;8.13;2.70;;;27.60;92.40;;;;;;5042422;28;20059;-53
2021/10/28 01:36:06;;;;;;;9.98;3.00;;;27.60;92.40;;;;;;5042678;28;20014;-52
2021/10/28 01:38:36;;;;;;;8.13;2.40;;;27.50;92.40;;;;;;5042626;28;20354;-52
2021/10/28 01:41:05;;;;;;;6.35;2.15;;;27.60;92.50;;;;;;5042373;28;20021;-53
2021/10/28 01:43:34;;;;;;;6.97;1.95;;;27.60;92.40;;;;;;5042771;28;20345;-54
2021/10/28 01:46:01;;;;;;;7.90;2.17;;;27.60;92.40;;;;;;5042473;28;20033;-53
2021/10/28 01:48:28;;;;;;;8.52;2.42;;;27.60;92.40;;;;;;5042016;28;20339;-52
2021/10/28 01:50:55;;;;;;;8.13;2.03;;;27.60;92.40;;;;;;5042643;28;20030;-53
2021/10/28 01:53:22;;;;;;;5.13;1.65;;;27.60;92.40;;;;;;5042215;28;20049;-52
2021/10/28 01:55:49;;;;;;;6.10;1.80;;;27.60;92.40;;;;;;5041044;28;20088;-50
2021/10/28 01:58:22;;;;;;;7.32;2.50;;;27.60;92.30;;;;;;5042417;28;20017;-55
2021/10/28 02:00:50;;;;;;;6.35;2.33;;;27.60;92.60;;;;;;5042241;28;20069;-52
2021/10/28 02:03:17;;;;;;;6.35;2.55;;;27.60;92.40;;;;;;5042445;28;20024;-55
2021/10/28 02:05:44;;;;;;;7.20;2.30;;;27.60;92.40;;;;;;5042950;28;20022;-53
2021/10/28 02:08:10;;;;;;;5.97;2.80;;;27.50;92.30;;;;;;5110384;28;20321;-54
2021/10/28 02:10:38;;;;;;;9.35;2.70;;;27.60;92.40;;;;;;5042549;28;20403;-54
2021/10/28 02:13:06;;;;;;;9.35;3.15;;;27.60;92.40;;;;;;5041928;28;20250;-53
2021/10/28 02:15:33;;;;;;;6.47;3.00;;;27.50;92.40;;;;;;5042422;28;20092;-52
2021/10/28 02:17:59;;;;;;;4.80;2.67;;;27.50;92.40;;;;;;5041728;28;20085;-50
2021/10/28 02:20:26;;;;;;;5.45;2.53;;;27.50;92.40;;;;;;5110678;28;20340;-51
2021/10/28 02:22:53;;;;;;;4.97;2.65;;;27.50;92.40;;;;;;5041959;28;20067;-54
2021/10/28 02:25:19;;;;;;;8.65;2.58;;;27.50;92.40;;;;;;5110246;28;20263;-55
2021/10/28 02:27:46;;;;;;;6.50;2.38;;;27.50;92.40;;;;;;5041734;28;20029;-54
2021/10/28 02:30:14;;;;;;;5.18;2.38;;;27.50;92.40;;;;;;5042214;28;20025;-55
2021/10/28 02:32:46;;;;;;;6.38;2.42;;;27.50;92.40;;;;;;5042154;28;20033;-53
2021/10/28 02:35:13;;;;;;;6.60;2.15;;;27.50;92.40;;;;;;5042169;28;20021;-50
2021/10/28 02:37:40;;;;;;;3.95;1.85;;;27.50;92.40;;;;;;5041638;28;20210;-54
2021/10/28 02:40:07;;;;;;;5.50;1.65;;;27.50;92.40;;;;;;5041813;28;20017;-53
2021/10/28 02:42:35;;;;;;;7.90;1.80;;;27.50;92.40;;;;;;5041565;28;20075;-54
2021/10/28 02:45:02;;;;;;;6.10;2.58;;;27.50;92.40;;;;;;5041769;28;20033;-54
2021/10/28 02:47:29;;;;;;;7.40;2.10;;;27.50;92.50;;;;;;5041435;28;20017;-50
2021/10/28 02:49:57;;;;;;;4.55;1.98;;;27.40;92.40;;;;;;5041971;28;20029;-53
2021/10/28 02:52:24;;;;;;;5.90;2.08;;;27.50;92.40;;;;;;5041223;28;20027;-53
2021/10/28 02:54:54;;;;;;;6.72;1.63;;;27.50;92.40;;;;;;5108743;28;20029;-55
2021/10/28 02:57:21;;;;;;;3.10;1.45;;;27.50;92.40;;;;;;5041130;28;20085;-55
2021/10/28 02:59:48;;;;;;;5.22;1.48;;;27.40;92.40;;;;;;5041476;28;20021;-54
2021/10/28 03:02:15;;;;;;;5.00;1.83;;;27.50;92.40;;;;;;5041237;28;20286;-54
2021/10/28 03:04:41;;;;;;;6.25;1.58;;;27.40;92.30;;;;;;5041499;28;20033;-51
2021/10/28 03:07:08;;;;;;;3.85;1.50;;;27.40;92.60;;;;;;5040956;28;20025;-52
2021/10/28 03:09:35;;;;;;;4.43;1.60;;;27.40;92.40;;;;;;5041237;28;20226;-52
2021/10/28 03:12:04;;;;;;;3.58;1.40;;;27.40;92.40;;;;;;5109656;28;20199;-53
2021/10/28 03:14:52;;;;;;;4.85;1.40;;;27.40;92.40;;;;;;5041783;28;20086;-55
2021/10/28 03:17:27;;;;;;;3.70;1.52;;;27.40;92.40;;;;;;5041186;28;20304;-54
2021/10/28 03:25:34;;;;;;;5.75;1.48;;;27.40;92.40;;;;;;5041270;28;20029;-53
2021/10/28 03:25:42;;;;;;;5.70;1.10;;;27.40;92.50;;;;;;5041526;28;20060;-56
2021/10/28 03:28:17;;;;;;;3.78;1.30;;;27.40;92.50;;;;;;5040928;28;20021;-54
2021/10/28 03:30:45;;;;;;;3.28;1.15;;;27.40;92.50;;;;;;5041392;28;20029;-55
2021/10/28 03:33:21;;;;;;;2.50;1.10;;;27.40;92.50;;;;;;5040511;28;20024;-54
2021/10/28 03:35:47;;;;;;;4.10;1.30;;;27.40;92.50;;;;;;5040721;28;20022;-49
2021/10/28 03:38:22;;;;;;;7.55;1.38;;;27.40;92.40;;;;;;5040845;28;20018;-55
2021/10/28 04:29:31;;;;;;;6.20;1.20;;;27.20;92.80;;;;;;5043644;28;20025;-57
2021/10/28 04:31:58;;;;;;;5.07;1.65;;;27.20;92.80;;;;;;5043726;28;20213;-58
2021/10/28 04:34:26;;;;;;;8.73;2.20;;;27.20;92.80;;;;;;5043631;28;20032;-57
2021/10/28 04:36:53;;;;;;;5.28;1.60;;;27.20;92.80;;;;;;5043391;28;20032;-57
2021/10/28 04:39:20;;;;;;;5.40;1.88;;;27.20;93.10;;;;;;5043674;28;20021;-57
2021/10/28 04:41:47;;;;;;;4.07;1.80;;;27.20;93.00;;;;;;5043521;28;20021;-57
2021/10/28 04:44:13;;;;;;;4.00;1.73;;;27.20;92.80;;;;;;5043286;28;20045;-59
2021/10/28 04:46:40;;;;;;;6.00;1.40;;;27.20;92.80;;;;;;5043434;28;20026;-56
2021/10/28 04:49:07;;;;;;;6.50;1.40;;;27.20;92.80;;;;;;5043427;28;20021;-58
2021/10/28 04:51:34;;;;;;;7.25;1.40;;;27.20;92.80;;;;;;5043055;28;20013;-59
2021/10/28 04:54:01;;;;;;;7.03;1.23;;;27.20;92.80;;;;;;5043406;28;20206;-59
2021/10/28 04:56:28;;;;;;;6.85;1.50;;;27.20;92.70;;;;;;5043224;28;20025;-55
2021/10/28 04:58:54;;;;;;;3.35;1.20;;;27.20;92.70;;;;;;5043059;28;20047;-59
2021/10/28 05:01:23;;;;;;;2.42;1.10;;;27.20;92.70;;;;;;5043132;28;20057;-59
2021/10/28 05:03:49;;;;;;;6.15;1.38;;;27.20;92.80;;;;;;5043126;28;20030;-59
2021/10/28 05:06:17;;;;;;;4.28;1.05;;;27.20;92.70;;;;;;5042974;28;20086;-58
2021/10/28 05:08:44;;;;;;;4.43;1.25;;;27.20;92.70;;;;;;5042952;28;20029;-55
2021/10/28 05:11:11;;;;;;;5.55;1.10;;;27.20;92.80;;;;;;5043497;28;20021;-55
2021/10/28 05:13:37;;;;;;;2.72;1.20;;;27.20;92.80;;;;;;5042714;28;20309;-59
2021/10/28 05:16:05;;;;;;;3.30;1.10;;;27.20;92.80;;;;;;5043010;28;20017;-56
2021/10/28 05:18:39;;;;;;;2.08;1.00;;;27.20;92.80;;;;;;5042908;28;20013;-56
2021/10/28 05:21:06;;;;;;;2.55;1.13;;;27.20;92.80;;;;;;5042603;28;20024;-58
2021/10/28 05:23:33;;;;;;;8.10;1.10;;;27.20;92.80;;;;;;5042864;28;20080;-57
2021/10/28 05:26:00;;;;;;;4.53;1.13;;;27.20;92.80;;;;;;5042852;28;20025;-58
2021/10/28 05:28:26;;;;;;;4.40;1.10;;;27.20;92.80;;;;;;5042625;28;20017;-58
2021/10/28 05:30:53;;;;;;;1.63;1.10;;;27.20;92.80;;;;;;5042582;28;20048;-58
2021/10/28 05:33:19;;;;;;;2.13;1.00;;;27.20;92.80;;;;;;5042474;28;20026;-58
2021/10/28 05:35:46;;;;;;;3.58;1.00;;;27.20;92.80;;;;;;5042452;28;20367;-59
2021/10/28 05:38:13;;;;;;;4.70;1.20;;;27.20;92.80;;;;;;5042715;28;20058;-59
2021/10/28 05:40:39;;;;;;;6.28;1.00;;;27.20;92.80;;;;;;5043059;28;20037;-58
2021/10/28 05:43:08;;;;;;;7.90;1.48;;;27.20;92.80;;;;;;5042489;28;20045;-58
2021/10/28 05:45:36;;;;;;;5.15;1.30;;;27.20;92.80;;;;;;5042996;28;20046;-59
2021/10/28 05:48:03;;;;;;;3.25;1.00;;;27.20;92.80;;;;;;5042413;28;20037;-58
2021/10/28 05:50:30;;;;;;;5.10;0.88;;;27.20;92.90;;;;;;5042696;28;20029;-61
2021/10/28 05:52:59;;;;;;;4.97;1.10;;;27.20;92.90;;;;;;5042348;28;20025;-60
2021/10/28 05:55:26;;;;;;;5.72;1.10;;;27.20;92.90;;;;;;5042821;27;20088;-60
2021/10/28 05:57:53;;;;;;;5.63;1.10;;;27.20;92.90;;;;;;5042139;28;20022;-55
2021/10/28 06:00:22;;;;;;;6.78;1.17;;;27.20;92.90;;;;;;5042702;28;20021;-59
2021/10/28 06:02:49;;;;;;;4.78;1.05;;;27.20;92.80;;;;;;5042227;28;20032;-59
2021/10/28 06:05:15;;;;;;;7.03;1.00;;;27.20;92.80;;;;;;5042373;28;20297;-60
2021/10/28 06:07:42;;;;;;;2.67;0.90;;;27.20;92.80;;;;;;5042266;28;20317;-60
2021/10/28 06:10:11;;;;;;;8.95;1.25;;;27.20;92.80;;;;;;5042508;28;20033;-54
2021/10/28 06:12:41;;;;;;;2.65;0.98;;;27.20;92.80;;;;;;5041849;28;20029;-55
2021/10/28 06:15:10;;;;;;;2.40;0.77;;;27.20;92.80;;;;;;5042425;27;20022;-54
2021/10/28 06:17:45;;;;;;;4.20;1.00;;;27.20;92.80;;;;;;5041962;28;20234;-60
2021/10/28 06:20:12;;;;;;;5.30;1.02;;;27.20;92.80;;;;;;5042197;28;20202;-56
2021/10/28 06:22:38;;;;;;;4.80;1.10;;;27.20;92.80;;;;;;5041936;28;20032;-56
2021/10/28 06:25:05;;;;;;;11.68;1.20;;;27.20;92.80;;;;;;5042059;28;20293;-56
2021/10/28 06:27:32;;;;;;;5.57;0.90;;;27.10;92.70;;;;;;5041857;28;20074;-58
2021/10/28 06:29:58;;;;;;;4.10;1.10;;;27.10;92.70;;;;;;5042280;28;20317;-59
2021/10/28 06:32:25;;;;;;;5.55;1.10;;;27.10;92.80;;;;;;5041524;28;20355;-61
2021/10/28 06:34:52;;;;;;;2.47;0.88;;;27.10;92.80;;;;;;5042230;28;20205;-58
2021/10/28 06:37:19;;;;;;;3.65;0.80;;;27.10;92.80;;;;;;5041615;28;20085;-59
2021/10/28 06:39:45;;;;;;;3.08;0.93;;;27.10;93.00;;;;;;5041894;28;20018;-60
2021/10/28 06:42:13;;;;;;;4.88;0.98;;;27.10;92.80;;;;;;5041015;28;20360;-60
2021/10/28 06:44:43;;;;;;;2.00;0.98;;;27.10;92.80;;;;;;5041691;28;20313;-59
2021/10/28 06:47:10;;;;;;;2.40;0.80;;;27.10;92.80;;;;;;5041305;28;20028;-57
2021/10/28 06:49:40;;;;;;;5.45;0.82;;;27.10;92.80;;;;;;5041706;28;20345;-59
2021/10/28 06:52:11;;;;;;;4.30;0.77;;;27.10;92.90;;;;;;5041474;28;20036;-60
2021/10/28 06:54:40;;;;;;;2.78;0.93;;;27.00;92.90;;;;;;5041240;28;20097;-61
2021/10/28 07:02:40;;;;;;;4.85;0.82;;;27.00;92.90;;;;;;5041308;28;20426;-57
2021/10/28 07:05:07;;;;;;;5.25;1.00;;;27.00;92.90;;;;;;5041660;28;20061;-61
2021/10/28 07:07:35;;;;;;;3.63;0.95;;;27.00;92.90;;;;;;5041677;28;20028;-60
2021/10/28 07:10:08;;;;;;;4.75;0.77;;;27.00;92.90;;;;;;5041534;28;20031;-54
2021/10/28 07:12:43;;;;;;;6.75;1.65;;;27.00;92.90;;;;;;5041307;28;20340;-55
2021/10/28 07:15:23;;;;;;;3.58;0.80;;;27.10;93.00;;;;;;5041596;28;20039;-60
2021/10/28 07:26:40;;;;;;;5.43;0.82;;;27.00;92.90;;;;;;5040955;28;20029;-54
2021/10/28 07:57:07;;;;;;;4.22;0.95;;;27.00;93.10;;;;;;5044262;28;20057;-59
2021/10/28 08:31:09;;;;;;;7.50;1.20;;;26.90;93.10;;;;;;5043630;28;20017;-56
2021/10/28 08:33:35;;;;;;;4.38;0.90;;;26.90;93.10;;;;;;5043336;28;20135;-57
2021/10/28 08:36:10;;;;;;;11.48;1.27;;;26.90;93.10;;;;;;5043552;28;20254;-54
2021/10/28 08:38:41;;;;;;;4.25;1.05;;;27.00;93.10;;;;;;5108105;28;20017;-59
2021/10/28 08:41:10;;;;;;;4.23;0.80;;;26.90;93.20;;;;;;5043564;28;20252;-56
2021/10/28 08:43:42;;;;;;;9.30;0.95;;;26.90;93.10;;;;;;5043325;28;20272;-56
2021/10/28 08:46:10;;;;;;;5.80;0.77;;;26.90;93.20;;;;;;5043370;28;20034;-57
2021/10/28 08:48:40;;;;;;;9.35;1.13;;;26.90;93.20;;;;;;5043663;28;20029;-56
2021/10/28 08:54:43;;;;;;;6.05;0.80;;;26.90;93.20;;;;;;5055217;28;20041;-48
2021/10/28 08:57:12;;;;;;;5.95;0.90;;;26.90;93.10;;;;;;5043367;28;20263;-49
2021/10/28 09:00:07;;;;;;;7.22;0.93;;;26.90;93.10;;;;;;5043302;28;20028;-53
2021/10/28 09:24:48;;;;;;;4.72;0.85;;;26.90;93.10;;;;;;5043146;28;20213;-54
2021/10/28 09:27:20;;;;;;;4.65;0.68;;;26.90;93.10;;;;;;5042766;28;20030;-60
2021/10/28 09:30:10;;;;;;;9.57;1.00;;;26.90;93.10;;;;;;5043049;28;20021;-59
2021/10/28 09:43:55;;;;;;;6.30;0.60;;;26.90;93.10;;;;;;5042409;28;20106;-58
2021/10/28 09:51:31;;;;;;;7.90;0.98;;;26.80;93.00;;;;;;5042260;28;20254;-50
2021/10/28 09:59:30;;;;;;;3.27;0.60;;;26.80;93.00;;;;;;5042428;28;20037;-50
2021/10/28 10:02:11;;;;;;;5.47;0.60;;;26.80;93.10;;;;;;5041994;28;20067;-50
2021/10/28 10:04:41;;;;;;;3.47;0.82;;;26.80;93.00;;;;;;5042364;28;20097;-50
2021/10/28 10:07:10;;;;;;;5.35;0.47;;;26.80;93.00;;;;;;5041992;28;20403;-51
2021/10/28 10:09:40;;;;;;;2.50;0.45;;;26.80;93.00;;;;;;5042238;28;20039;-49
2021/10/28 10:12:07;;;;;;;4.45;0.82;;;26.80;93.00;;;;;;5042147;28;20047;-50
2021/10/28 10:14:38;;;;;;;5.90;0.80;;;26.80;93.00;;;;;;5042085;28;20058;-52
2021/10/28 10:17:06;;;;;;;7.13;0.77;;;26.80;93.00;;;;;;5041126;28;20020;-51
2021/10/28 10:19:40;;;;;;;5.80;0.80;;;26.80;93.00;;;;;;5042067;28;20026;-48
2021/10/28 10:22:37;;;;;;;2.90;0.80;;;26.80;93.00;;;;;;5041759;28;20032;-50
2021/10/28 11:33:27;;;;;;;9.38;1.40;;;26.70;93.60;;;;;;5040965;28;20021;-53
2021/10/28 12:46:00;;;;;;;45.58;4.95;;;26.60;93.70;;;;;;5043507;28;20040;-64
2021/10/28 12:48:58;;;;;;;33.50;3.67;;;26.60;93.80;;;;;;5112253;28;20029;-63
2021/10/28 12:51:50;;;;;;;34.38;3.47;;;26.60;93.70;;;;;;5043663;28;20045;-65
2021/10/28 13:49:51;;;;;;;12.82;1.70;;;26.60;93.90;;;;;;5042673;28;20052;-53
2021/10/28 15:29:57;;;;;;;29.98;2.33;;;26.90;92.60;;;;;;5041260;28;20048;-52
2021/10/28 15:35:19;;;;;;;12.05;1.52;;;27.00;92.50;;;;;;5041210;28;20029;-54
2021/10/28 15:51:58;;;;;;;9.45;1.40;;;27.00;92.50;;;;;;5040925;28;20063;-53
2021/10/28 16:00:08;;;;;;;10.13;0.82;;;27.10;92.40;;;;;;5040700;28;20029;-57
2021/10/28 16:21:55;;;;;;;6.28;0.75;;;27.20;92.10;;;;;;5043946;28;20345;-58
2021/10/28 16:24:31;;;;;;;3.33;0.70;;;27.20;92.10;;;;;;5044264;28;20022;-59
2021/10/28 16:27:01;;;;;;;3.63;0.60;;;27.20;91.90;;;;;;5044193;28;20018;-60
2021/10/28 16:29:28;;;;;;;8.80;0.90;;;27.20;91.90;;;;;;5044988;28;20313;-59
2021/10/28 16:31:56;;;;;;;6.03;0.63;;;27.20;91.90;;;;;;5043941;28;20029;-58
2021/10/28 16:34:23;;;;;;;4.45;0.40;;;27.20;91.80;;;;;;5044648;28;20066;-57
2021/10/28 16:36:51;;;;;;;10.20;1.02;;;27.20;91.60;;;;;;5043923;28;20017;-58
2021/10/28 16:39:20;;;;;;;4.72;0.93;;;27.20;91.80;;;;;;5043885;28;20022;-57
2021/10/28 16:41:52;;;;;;;4.03;0.52;;;27.20;91.80;;;;;;5044257;28;20093;-61
2021/10/28 16:44:19;;;;;;;6.15;0.50;;;27.30;91.90;;;;;;5044068;28;20074;-57
2021/10/28 16:46:47;;;;;;;2.40;0.55;;;27.30;91.70;;;;;;5112354;28;20057;-57
2021/10/28 16:49:16;;;;;;;4.57;0.68;;;27.30;91.80;;;;;;5043965;28;20017;-62
2021/10/28 16:51:45;;;;;;;2.03;0.60;;;27.30;91.60;;;;;;5043582;28;20025;-58
2021/10/28 16:54:13;;;;;;;6.18;0.85;;;27.30;91.50;;;;;;5043508;28;20021;-61
2021/10/28 16:56:40;;;;;;;3.05;0.40;;;27.30;91.50;;;;;;5043534;28;20150;-60
2021/10/28 16:59:07;;;;;;;1.67;0.40;;;27.30;91.30;;;;;;5043824;28;20290;-60
2021/10/28 17:01:33;;;;;;;4.65;0.50;;;27.30;91.40;;;;;;5112530;28;20085;-60
2021/10/28 17:04:04;;;;;;;1.60;0.50;;;27.30;91.40;;;;;;5043296;28;20022;-58
2021/10/28 17:06:31;;;;;;;0.82;0.50;;;27.30;91.40;;;;;;5043445;28;20040;-61
2021/10/28 17:08:59;;;;;;;1.00;0.40;;;27.30;91.20;;;;;;5112241;28;20036;-61
2021/10/28 17:11:30;;;;;;;1.55;0.43;;;27.30;91.10;;;;;;5043043;28;20210;-60
2021/10/28 17:13:56;;;;;;;1.48;0.45;;;27.30;91.20;;;;;;5043356;28;20021;-59
2021/10/28 17:16:24;;;;;;;1.98;0.60;;;27.30;91.20;;;;;;5043198;28;20041;-58
2021/10/28 17:18:50;;;;;;;0.77;0.45;;;27.30;91.30;;;;;;5111381;28;20296;-59
2021/10/28 17:21:17;;;;;;;1.20;0.40;;;27.30;91.30;;;;;;5043249;28;20021;-57
2021/10/28 17:23:48;;;;;;;0.93;0.50;;;27.30;91.30;;;;;;5043328;28;20138;-59
2021/10/28 17:26:16;;;;;;;0.60;0.40;;;27.30;91.20;;;;;;5042431;28;20017;-60
2021/10/28 17:28:43;;;;;;;0.98;0.43;;;27.30;91.30;;;;;;5043624;28;20034;-61
2021/10/28 17:31:10;;;;;;;3.83;0.55;;;27.30;91.40;;;;;;5043338;28;20306;-60
2021/10/28 17:33:40;;;;;;;6.22;2.45;;;27.30;91.40;;;;;;5043168;28;20092;-61
2021/10/28 17:36:07;;;;;;;4.07;1.70;;;27.30;91.60;;;;;;5043294;28;20021;-61
2021/10/28 17:38:34;;;;;;;3.45;1.40;;;27.30;91.60;;;;;;5043016;28;20080;-59
2021/10/28 17:41:04;;;;;;;2.83;1.20;;;27.30;91.70;;;;;;5042594;28;20239;-59
2021/10/28 17:43:33;;;;;;;2.10;1.30;;;27.30;91.90;;;;;;5042529;28;20312;-53
2021/10/28 17:46:00;;;;;;;3.00;1.20;;;27.30;91.80;;;;;;5042529;28;20029;-53
2021/10/28 17:48:27;;;;;;;4.97;1.30;;;27.30;91.90;;;;;;5042815;28;20202;-55
2021/10/28 17:50:55;;;;;;;2.63;1.08;;;27.30;91.90;;;;;;5042334;28;20034;-54
2021/10/28 17:53:22;;;;;;;4.32;1.20;;;27.30;92.00;;;;;;5042286;28;20024;-56
2021/10/28 17:55:48;;;;;;;2.83;1.10;;;27.30;92.00;;;;;;5042256;28;20089;-55
2021/10/28 17:58:15;;;;;;;1.92;0.95;;;27.30;92.00;;;;;;5042085;28;20017;-52
2021/10/28 18:00:42;;;;;;;4.45;1.10;;;27.30;92.10;;;;;;5042687;28;20017;-54
2021/10/28 18:03:10;;;;;;;1.92;1.02;;;27.30;92.10;;;;;;5042131;28;20039;-55
2021/10/28 18:05:38;;;;;;;2.15;0.80;;;27.30;92.10;;;;;;5042665;28;20125;-52
2021/10/28 18:08:07;;;;;;;1.63;0.70;;;27.30;92.20;;;;;;5042246;28;20025;-54
2021/10/28 18:10:34;;;;;;;2.92;0.90;;;27.30;92.20;;;;;;5042605;28;20108;-54
2021/10/28 18:13:03;;;;;;;3.05;0.80;;;27.30;92.20;;;;;;5042047;27;20024;-54
2021/10/28 18:15:30;;;;;;;1.42;1.00;;;27.30;92.20;;;;;;5109400;28;20021;-56
2021/10/28 18:18:03;;;;;;;1.23;0.80;;;27.30;92.20;;;;;;5041939;28;20041;-54
2021/10/28 18:20:30;;;;;;;2.42;0.75;;;27.30;92.30;;;;;;5042805;28;20026;-55
2021/10/28 18:22:58;;;;;;;1.58;0.93;;;27.30;92.20;;;;;;5041871;28;20021;-53
2021/10/28 18:25:25;;;;;;;1.45;0.88;;;27.30;92.30;;;;;;5041703;28;20021;-55
2021/10/28 18:27:56;;;;;;;2.15;1.10;;;27.30;92.30;;;;;;5041767;28;20020;-56
2021/10/28 18:30:25;;;;;;;3.20;0.93;;;27.30;92.30;;;;;;5042021;28;20033;-55
2021/10/28 18:32:52;;;;;;;2.63;0.93;;;27.30;92.40;;;;;;5041755;28;20027;-59
2021/10/28 18:35:19;;;;;;;1.90;1.02;;;27.30;92.40;;;;;;5042265;28;20028;-59
2021/10/28 18:37:46;;;;;;;4.40;1.10;;;27.30;92.50;;;;;;5109666;28;20022;-60
2021/10/28 18:40:14;;;;;;;1.85;1.00;;;27.30;92.50;;;;;;5109909;28;20210;-54
2021/10/28 18:42:40;;;;;;;2.33;1.10;;;27.30;92.60;;;;;;5041760;28;20117;-53
2021/10/28 18:45:08;;;;;;;3.03;0.90;;;27.30;92.70;;;;;;5093126;28;20082;-54
2021/10/28 18:47:35;;;;;;;2.75;0.93;;;27.20;92.80;;;;;;5041425;28;20017;-56
2021/10/28 18:50:04;;;;;;;1.77;0.80;;;27.20;92.80;;;;;;5041957;28;20205;-56
2021/10/28 18:52:31;;;;;;;2.97;1.02;;;27.20;92.80;;;;;;5041284;28;20021;-52
2021/10/28 18:54:58;;;;;;;3.50;0.80;;;27.20;92.80;;;;;;5041761;28;20033;-53
2021/10/28 18:57:25;;;;;;;1.73;0.80;;;27.20;92.90;;;;;;5041339;28;20017;-56
2021/10/28 18:59:53;;;;;;;1.58;0.80;;;27.20;92.90;;;;;;5109975;28;20029;-55
2021/10/28 19:02:20;;;;;;;2.05;0.90;;;27.20;93.00;;;;;;5041321;28;20301;-55
2021/10/28 19:04:48;;;;;;;2.92;0.98;;;27.20;93.00;;;;;;5110030;28;20033;-57
2021/10/28 19:07:15;;;;;;;3.78;0.98;;;27.10;93.00;;;;;;5041158;28;20206;-49
2021/10/28 19:09:41;;;;;;;4.22;0.93;;;27.10;93.00;;;;;;5041642;28;20249;-53
2021/10/28 19:12:08;;;;;;;5.13;1.00;;;27.10;93.00;;;;;;5041632;28;20018;-50
2021/10/28 19:14:42;;;;;;;3.13;1.00;;;27.10;93.00;;;;;;5041237;28;20022;-48
2021/10/28 19:17:09;;;;;;;5.03;1.20;;;27.10;93.00;;;;;;5041389;28;20010;-52
2021/10/28 19:19:36;;;;;;;4.40;1.17;;;27.10;92.90;;;;;;5109535;28;20048;-51
2021/10/28 19:22:03;;;;;;;1.73;0.88;;;27.10;92.90;;;;;;5109462;28;20017;-53
2021/10/28 19:24:30;;;;;;;3.88;1.00;;;27.10;92.90;;;;;;5041064;28;20044;-54
2021/10/28 19:26:57;;;;;;;2.90;0.98;;;27.10;92.90;;;;;;5041050;28;20077;-55
2021/10/28 19:29:25;;;;;;;3.70;1.20;;;27.10;93.00;;;;;;5040714;28;20022;-51
2021/10/28 19:32:05;;;;;;;3.78;0.93;;;27.00;92.90;;;;;;5109704;28;20029;-55
2021/10/28 19:34:37;;;;;;;3.53;0.95;;;27.00;93.00;;;;;;5041013;28;20064;-55
2021/10/28 19:37:25;;;;;;;3.58;1.10;;;27.00;93.10;;;;;;5109491;28;20017;-54
2021/10/28 19:45:30;;;;;;;3.00;0.70;;;27.00;93.10;;;;;;5101973;28;20026;-59
2021/10/28 19:47:57;;;;;;;3.22;0.60;;;26.90;93.00;;;;;;5041455;28;20013;-58
2021/10/28 19:50:24;;;;;;;2.13;0.75;;;26.90;92.90;;;;;;5044595;28;20033;-57
2021/10/28 19:52:51;;;;;;;2.78;0.93;;;26.90;92.90;;;;;;5044817;28;20213;-58
2021/10/28 19:55:19;;;;;;;2.58;0.65;;;26.90;92.90;;;;;;5113458;28;20029;-58
2021/10/28 19:57:54;;;;;;;1.42;0.50;;;26.90;92.80;;;;;;5044291;28;20017;-59
2021/10/28 20:08:11;;;;;;;2.70;0.50;;;26.90;92.80;;;;;;5044581;28;20079;-56
2021/10/28 20:21:31;;;;;;;4.93;1.00;;;26.80;92.80;;;;;;5044503;28;20050;-56
2021/10/28 20:23:57;;;;;;;7.35;1.58;;;26.80;92.70;;;;;;5043896;28;20099;-59
2021/10/28 20:26:24;;;;;;;6.53;1.05;;;26.80;92.70;;;;;;5113165;28;20101;-60
2021/10/28 20:28:58;;;;;;;4.50;0.80;;;26.80;92.70;;;;;;5113011;28;20217;-58
2021/10/28 20:31:25;;;;;;;5.25;1.10;;;26.80;92.70;;;;;;5113257;28;20101;-60
2021/10/28 20:34:10;;;;;;;8.65;1.15;;;26.80;92.60;;;;;;5044373;28;20070;-61
2021/10/28 20:39:23;;;;;;;6.75;1.58;;;26.70;92.70;;;;;;5044836;28;20029;-53
2021/10/28 20:41:50;;;;;;;10.05;1.20;;;26.70;92.80;;;;;;5112329;28;20306;-51
2021/10/28 20:44:17;;;;;;;6.50;1.45;;;26.70;92.70;;;;;;5112641;28;20053;-54
2021/10/28 20:46:44;;;;;;;11.25;1.85;;;26.70;92.70;;;;;;5044048;28;20047;-55
2021/10/28 20:49:12;;;;;;;6.80;1.20;;;26.70;92.80;;;;;;5043901;28;20055;-57
2021/10/28 20:51:39;;;;;;;11.38;1.52;;;26.70;92.70;;;;;;5043519;28;20233;-50
2021/10/28 20:54:06;;;;;;;18.33;2.38;;;26.60;92.70;;;;;;5043220;28;20029;-51
2021/10/28 20:56:33;;;;;;;16.55;2.17;;;26.60;92.80;;;;;;5043188;28;20039;-51
2021/10/28 20:58:59;;;;;;;7.15;1.52;;;26.60;92.90;;;;;;5043632;28;20025;-54
2021/10/28 21:01:26;;;;;;;8.00;1.35;;;26.60;92.80;;;;;;5042739;28;20025;-53
2021/10/28 21:03:53;;;;;;;11.38;1.50;;;26.60;92.80;;;;;;5043588;28;20040;-55
2021/10/28 21:06:23;;;;;;;10.57;1.27;;;26.60;92.80;;;;;;5044121;28;20029;-54
2021/10/28 21:08:50;;;;;;;14.77;2.25;;;26.60;92.80;;;;;;5112360;28;20033;-56
2021/10/28 21:11:17;;;;;;;9.65;1.30;;;26.70;92.80;;;;;;5043277;28;20041;-52
2021/10/28 21:13:44;;;;;;;7.82;1.48;;;26.70;92.70;;;;;;5043074;28;20038;-56
2021/10/28 21:16:11;;;;;;;5.93;1.35;;;26.60;92.70;;;;;;5111911;28;20053;-53
2021/10/28 21:18:41;;;;;;;8.13;1.25;;;26.60;93.00;;;;;;5043118;28;20013;-55
2021/10/28 21:21:18;;;;;;;11.48;1.40;;;26.60;92.80;;;;;;5112148;28;20036;-52
2021/10/28 21:23:45;;;;;;;31.15;3.63;;;26.60;92.80;;;;;;5043491;28;20092;-53
2021/10/28 21:26:19;;;;;;;50.40;4.78;;;26.60;92.80;;;;;;5043667;28;20040;-58
2021/10/28 21:28:46;;;;;;;48.53;3.42;;;26.60;92.80;;;;;;5043375;28;20060;-52
2021/10/28 21:31:13;;;;;;;29.88;3.30;;;26.60;92.80;;;;;;5043382;28;20289;-53
2021/10/28 21:33:41;;;;;;;25.52;2.65;;;26.60;92.80;;;;;;5042726;28;20060;-54
2021/10/28 21:36:08;;;;;;;24.27;2.92;;;26.60;92.70;;;;;;5043089;28;20084;-53
2021/10/28 21:38:35;;;;;;;16.40;2.05;;;26.60;92.60;;;;;;5042703;28;20089;-55
2021/10/28 21:41:02;;;;;;;12.65;1.90;;;26.60;92.70;;;;;;5042693;28;20017;-54
2021/10/28 21:43:31;;;;;;;17.75;2.00;;;26.60;92.80;;;;;;5042555;28;20037;-54
2021/10/28 21:45:58;;;;;;;21.42;2.10;;;26.60;92.80;;;;;;5042965;28;20032;-54
2021/10/28 21:48:25;;;;;;;11.70;2.05;;;26.60;92.70;;;;;;5042820;28;20029;-54
2021/10/28 21:51:03;;;;;;;15.05;2.58;;;26.60;92.80;;;;;;5110845;28;20055;-54
2021/10/28 21:53:34;;;;;;;13.00;2.72;;;26.60;92.70;;;;;;5042126;28;20022;-53
2021/10/28 22:02:52;;;;;;;10.55;1.98;;;26.60;92.70;;;;;;5053567;28;20078;-53
2021/10/28 22:24:17;;;;;;;5.55;1.33;;;26.60;92.70;;;;;;5042058;28;20343;-53
2021/10/28 22:26:46;;;;;;;4.47;1.02;;;26.60;92.70;;;;;;5100587;28;20034;-51